sensor_id;sensor_type;location;lat;lon;timestamp;P1;durP1;ratioP1;P2;durP2;ratioP2
71773;SDS011;59607;52.130;5.430;2023-10-08T00:01:39;15.30;;;3.80;;
71773;SDS011;59607;52.130;5.430;2023-10-08T00:04:09;9.35;;;2.80;;
71773;SDS011;59607;52.130;5.430;2023-10-08T00:06:45;14.30;;;3.40;;
71773;SDS011;59607;52.130;5.430;2023-10-08T00:09:15;15.90;;;3.33;;
71773;SDS011;59607;52.130;5.430;2023-10-08T00:11:42;11.45;;;3.28;;
71773;SDS011;59607;52.130;5.430;2023-10-08T00:14:09;14.02;;;3.72;;
71773;SDS011;59607;52.130;5.430;2023-10-08T00:16:45;14.80;;;3.17;;
71773;SDS011;59607;52.130;5.430;2023-10-08T00:19:16;15.40;;;3.20;;
71773;SDS011;59607;52.130;5.430;2023-10-08T00:21:49;15.75;;;3.70;;
71773;SDS011;59607;52.130;5.430;2023-10-08T00:24:18;15.75;;;3.78;;
71773;SDS011;59607;52.130;5.430;2023-10-08T00:26:50;8.50;;;3.00;;
71773;SDS011;59607;52.130;5.430;2023-10-08T00:29:17;13.32;;;3.25;;
71773;SDS011;59607;52.130;5.430;2023-10-08T00:31:55;11.77;;;3.57;;
71773;SDS011;59607;52.130;5.430;2023-10-08T00:34:29;16.70;;;3.55;;
71773;SDS011;59607;52.130;5.430;2023-10-08T00:36:55;16.45;;;3.75;;
71773;SDS011;59607;52.130;5.430;2023-10-08T00:39:25;13.55;;;3.70;;
71773;SDS011;59607;52.130;5.430;2023-10-08T00:42:02;14.10;;;3.38;;
71773;SDS011;59607;52.130;5.430;2023-10-08T00:44:31;13.47;;;2.93;;
71773;SDS011;59607;52.130;5.430;2023-10-08T00:47:09;13.35;;;3.28;;
71773;SDS011;59607;52.130;5.430;2023-10-08T00:49:52;15.77;;;3.25;;
71773;SDS011;59607;52.130;5.430;2023-10-08T00:52:31;15.60;;;3.30;;
71773;SDS011;59607;52.130;5.430;2023-10-08T00:55:09;11.52;;;3.42;;
71773;SDS011;59607;52.130;5.430;2023-10-08T00:57:46;16.40;;;3.60;;
71773;SDS011;59607;52.130;5.430;2023-10-08T01:00:16;14.40;;;3.13;;
71773;SDS011;59607;52.130;5.430;2023-10-08T01:02:51;17.65;;;3.55;;
71773;SDS011;59607;52.130;5.430;2023-10-08T01:05:30;11.13;;;2.60;;
71773;SDS011;59607;52.130;5.430;2023-10-08T01:08:15;14.10;;;3.42;;
71773;SDS011;59607;52.130;5.430;2023-10-08T01:11:17;12.40;;;3.73;;
71773;SDS011;59607;52.130;5.430;2023-10-08T01:13:50;14.75;;;3.30;;
71773;SDS011;59607;52.130;5.430;2023-10-08T01:16:16;12.07;;;3.15;;
71773;SDS011;59607;52.130;5.430;2023-10-08T01:18:44;16.63;;;3.80;;
71773;SDS011;59607;52.130;5.430;2023-10-08T01:21:18;15.00;;;3.58;;
71773;SDS011;59607;52.130;5.430;2023-10-08T01:24:03;11.60;;;3.03;;
71773;SDS011;59607;52.130;5.430;2023-10-08T01:26:33;26.48;;;3.45;;
71773;SDS011;59607;52.130;5.430;2023-10-08T01:29:03;14.07;;;4.00;;
71773;SDS011;59607;52.130;5.430;2023-10-08T01:31:32;11.85;;;3.63;;
71773;SDS011;59607;52.130;5.430;2023-10-08T01:34:15;13.52;;;3.35;;
71773;SDS011;59607;52.130;5.430;2023-10-08T01:36:46;11.97;;;3.23;;
71773;SDS011;59607;52.130;5.430;2023-10-08T01:39:13;10.70;;;3.00;;
71773;SDS011;59607;52.130;5.430;2023-10-08T01:41:44;12.70;;;3.38;;
71773;SDS011;59607;52.130;5.430;2023-10-08T01:44:16;12.88;;;3.55;;
71773;SDS011;59607;52.130;5.430;2023-10-08T01:46:49;17.25;;;3.38;;
71773;SDS011;59607;52.130;5.430;2023-10-08T01:49:18;10.63;;;3.93;;
71773;SDS011;59607;52.130;5.430;2023-10-08T01:51:49;12.15;;;3.33;;
71773;SDS011;59607;52.130;5.430;2023-10-08T01:54:15;17.25;;;3.35;;
71773;SDS011;59607;52.130;5.430;2023-10-08T01:56:53;10.82;;;3.67;;
71773;SDS011;59607;52.130;5.430;2023-10-08T01:59:22;11.25;;;2.88;;
71773;SDS011;59607;52.130;5.430;2023-10-08T02:01:50;8.23;;;3.13;;
71773;SDS011;59607;52.130;5.430;2023-10-08T02:04:22;15.02;;;4.15;;
71773;SDS011;59607;52.130;5.430;2023-10-08T02:06:48;11.63;;;3.35;;
71773;SDS011;59607;52.130;5.430;2023-10-08T02:09:18;12.80;;;3.35;;
71773;SDS011;59607;52.130;5.430;2023-10-08T02:11:51;12.95;;;3.45;;
71773;SDS011;59607;52.130;5.430;2023-10-08T02:14:22;16.70;;;3.20;;
71773;SDS011;59607;52.130;5.430;2023-10-08T02:16:58;11.45;;;3.00;;
71773;SDS011;59607;52.130;5.430;2023-10-08T02:19:31;15.02;;;3.85;;
71773;SDS011;59607;52.130;5.430;2023-10-08T02:21:58;13.60;;;3.15;;
71773;SDS011;59607;52.130;5.430;2023-10-08T02:24:26;18.00;;;3.58;;
71773;SDS011;59607;52.130;5.430;2023-10-08T02:26:53;15.07;;;3.90;;
71773;SDS011;59607;52.130;5.430;2023-10-08T02:29:29;14.18;;;3.58;;
71773;SDS011;59607;52.130;5.430;2023-10-08T02:32:04;12.98;;;3.75;;
71773;SDS011;59607;52.130;5.430;2023-10-08T02:34:33;20.13;;;3.80;;
71773;SDS011;59607;52.130;5.430;2023-10-08T02:37:03;18.92;;;4.30;;
71773;SDS011;59607;52.130;5.430;2023-10-08T02:39:29;12.60;;;3.60;;
71773;SDS011;59607;52.130;5.430;2023-10-08T02:42:05;17.70;;;4.10;;
71773;SDS011;59607;52.130;5.430;2023-10-08T02:44:37;19.92;;;4.75;;
71773;SDS011;59607;52.130;5.430;2023-10-08T02:47:09;17.35;;;4.13;;
71773;SDS011;59607;52.130;5.430;2023-10-08T02:49:38;16.20;;;3.80;;
71773;SDS011;59607;52.130;5.430;2023-10-08T02:52:10;13.97;;;3.80;;
71773;SDS011;59607;52.130;5.430;2023-10-08T02:54:37;14.65;;;3.42;;
71773;SDS011;59607;52.130;5.430;2023-10-08T02:57:09;18.70;;;4.32;;
71773;SDS011;59607;52.130;5.430;2023-10-08T02:59:40;23.08;;;4.78;;
71773;SDS011;59607;52.130;5.430;2023-10-08T03:02:15;17.60;;;4.15;;
71773;SDS011;59607;52.130;5.430;2023-10-08T03:05:01;11.17;;;3.60;;
71773;SDS011;59607;52.130;5.430;2023-10-08T03:07:30;14.55;;;3.95;;
71773;SDS011;59607;52.130;5.430;2023-10-08T03:10:04;16.85;;;3.88;;
71773;SDS011;59607;52.130;5.430;2023-10-08T03:12:38;17.42;;;4.35;;
71773;SDS011;59607;52.130;5.430;2023-10-08T03:15:06;12.48;;;4.10;;
71773;SDS011;59607;52.130;5.430;2023-10-08T03:17:56;14.97;;;4.53;;
71773;SDS011;59607;52.130;5.430;2023-10-08T03:20:49;20.83;;;4.10;;
71773;SDS011;59607;52.130;5.430;2023-10-08T03:23:22;15.15;;;4.00;;
71773;SDS011;59607;52.130;5.430;2023-10-08T03:26:05;10.15;;;4.00;;
71773;SDS011;59607;52.130;5.430;2023-10-08T03:28:45;21.33;;;4.40;;
71773;SDS011;59607;52.130;5.430;2023-10-08T03:31:11;9.47;;;3.50;;
71773;SDS011;59607;52.130;5.430;2023-10-08T03:33:53;20.25;;;4.80;;
71773;SDS011;59607;52.130;5.430;2023-10-08T03:36:29;17.17;;;4.53;;
71773;SDS011;59607;52.130;5.430;2023-10-08T03:39:01;13.30;;;4.22;;
71773;SDS011;59607;52.130;5.430;2023-10-08T03:41:41;17.92;;;4.35;;
71773;SDS011;59607;52.130;5.430;2023-10-08T03:44:39;15.37;;;3.97;;
71773;SDS011;59607;52.130;5.430;2023-10-08T03:47:14;18.30;;;4.72;;
71773;SDS011;59607;52.130;5.430;2023-10-08T03:49:45;12.27;;;4.03;;
71773;SDS011;59607;52.130;5.430;2023-10-08T03:52:19;18.75;;;4.85;;
71773;SDS011;59607;52.130;5.430;2023-10-08T03:54:54;15.50;;;4.80;;
71773;SDS011;59607;52.130;5.430;2023-10-08T03:57:46;14.13;;;4.87;;
71773;SDS011;59607;52.130;5.430;2023-10-08T04:00:30;21.80;;;5.25;;
71773;SDS011;59607;52.130;5.430;2023-10-08T04:03:05;12.85;;;4.78;;
71773;SDS011;59607;52.130;5.430;2023-10-08T04:05:53;23.52;;;5.82;;
71773;SDS011;59607;52.130;5.430;2023-10-08T04:08:46;19.63;;;4.68;;
71773;SDS011;59607;52.130;5.430;2023-10-08T04:11:32;23.53;;;4.63;;
71773;SDS011;59607;52.130;5.430;2023-10-08T04:14:25;16.00;;;4.00;;
71773;SDS011;59607;52.130;5.430;2023-10-08T04:17:06;18.75;;;4.57;;
71773;SDS011;59607;52.130;5.430;2023-10-08T04:19:37;22.92;;;4.43;;
71773;SDS011;59607;52.130;5.430;2023-10-08T04:22:03;16.42;;;4.03;;
71773;SDS011;59607;52.130;5.430;2023-10-08T04:24:50;12.07;;;3.43;;
71773;SDS011;59607;52.130;5.430;2023-10-08T04:27:20;18.20;;;3.22;;
71773;SDS011;59607;52.130;5.430;2023-10-08T04:29:50;16.73;;;3.00;;
71773;SDS011;59607;52.130;5.430;2023-10-08T04:32:18;14.45;;;3.53;;
71773;SDS011;59607;52.130;5.430;2023-10-08T04:34:54;10.73;;;2.55;;
71773;SDS011;59607;52.130;5.430;2023-10-08T04:37:24;11.00;;;3.33;;
71773;SDS011;59607;52.130;5.430;2023-10-08T04:40:04;10.80;;;3.20;;
71773;SDS011;59607;52.130;5.430;2023-10-08T04:42:31;21.70;;;2.95;;
71773;SDS011;59607;52.130;5.430;2023-10-08T04:44:58;14.93;;;3.20;;
71773;SDS011;59607;52.130;5.430;2023-10-08T04:47:32;14.88;;;4.07;;
71773;SDS011;59607;52.130;5.430;2023-10-08T04:50:09;13.37;;;2.70;;
71773;SDS011;59607;52.130;5.430;2023-10-08T04:52:55;9.95;;;2.25;;
71773;SDS011;59607;52.130;5.430;2023-10-08T04:55:27;11.93;;;2.58;;
71773;SDS011;59607;52.130;5.430;2023-10-08T04:57:57;9.45;;;2.50;;
71773;SDS011;59607;52.130;5.430;2023-10-08T05:00:35;9.38;;;2.95;;
71773;SDS011;59607;52.130;5.430;2023-10-08T05:03:20;9.03;;;3.00;;
71773;SDS011;59607;52.130;5.430;2023-10-08T05:06:00;10.88;;;3.08;;
71773;SDS011;59607;52.130;5.430;2023-10-08T05:08:42;14.27;;;3.13;;
71773;SDS011;59607;52.130;5.430;2023-10-08T05:11:25;11.25;;;2.85;;
71773;SDS011;59607;52.130;5.430;2023-10-08T05:14:04;12.07;;;2.97;;
71773;SDS011;59607;52.130;5.430;2023-10-08T05:16:45;10.67;;;3.20;;
71773;SDS011;59607;52.130;5.430;2023-10-08T05:19:28;12.73;;;3.28;;
71773;SDS011;59607;52.130;5.430;2023-10-08T05:22:14;11.00;;;3.05;;
71773;SDS011;59607;52.130;5.430;2023-10-08T05:24:57;10.98;;;3.15;;
71773;SDS011;59607;52.130;5.430;2023-10-08T05:27:47;14.35;;;3.40;;
71773;SDS011;59607;52.130;5.430;2023-10-08T05:33:06;9.43;;;2.83;;
71773;SDS011;59607;52.130;5.430;2023-10-08T05:35:40;10.77;;;2.97;;
71773;SDS011;59607;52.130;5.430;2023-10-08T05:40:54;8.68;;;1.73;;
71773;SDS011;59607;52.130;5.430;2023-10-08T05:43:23;5.07;;;1.20;;
71773;SDS011;59607;52.130;5.430;2023-10-08T05:46:04;5.68;;;0.90;;
71773;SDS011;59607;52.130;5.430;2023-10-08T05:51:30;4.30;;;0.90;;
71773;SDS011;59607;52.130;5.430;2023-10-08T05:54:24;10.13;;;1.10;;
71773;SDS011;59607;52.130;5.430;2023-10-08T05:57:11;5.37;;;1.27;;
71773;SDS011;59607;52.130;5.430;2023-10-08T05:59:44;5.45;;;1.00;;
71773;SDS011;59607;52.130;5.430;2023-10-08T06:02:47;2.58;;;0.77;;
71773;SDS011;59607;52.130;5.430;2023-10-08T06:05:13;2.95;;;1.25;;
71773;SDS011;59607;52.130;5.430;2023-10-08T06:07:44;3.80;;;0.60;;
71773;SDS011;59607;52.130;5.430;2023-10-08T06:10:26;3.50;;;0.87;;
71773;SDS011;59607;52.130;5.430;2023-10-08T06:13:00;4.00;;;0.50;;
71773;SDS011;59607;52.130;5.430;2023-10-08T06:15:40;7.97;;;0.57;;
71773;SDS011;59607;52.130;5.430;2023-10-08T06:18:34;1.73;;;0.43;;
71773;SDS011;59607;52.130;5.430;2023-10-08T06:21:02;2.05;;;0.40;;
71773;SDS011;59607;52.130;5.430;2023-10-08T06:23:39;2.93;;;0.70;;
71773;SDS011;59607;52.130;5.430;2023-10-08T06:26:11;1.35;;;0.68;;
71773;SDS011;59607;52.130;5.430;2023-10-08T06:28:44;3.20;;;0.40;;
71773;SDS011;59607;52.130;5.430;2023-10-08T06:31:10;3.28;;;1.08;;
71773;SDS011;59607;52.130;5.430;2023-10-08T06:33:42;3.20;;;0.95;;
71773;SDS011;59607;52.130;5.430;2023-10-08T06:36:10;2.60;;;0.50;;
71773;SDS011;59607;52.130;5.430;2023-10-08T06:38:51;1.27;;;0.50;;
71773;SDS011;59607;52.130;5.430;2023-10-08T06:41:25;3.67;;;0.85;;
71773;SDS011;59607;52.130;5.430;2023-10-08T06:44:13;6.35;;;0.70;;
71773;SDS011;59607;52.130;5.430;2023-10-08T06:46:43;1.95;;;0.50;;
71773;SDS011;59607;52.130;5.430;2023-10-08T06:49:09;6.20;;;0.50;;
71773;SDS011;59607;52.130;5.430;2023-10-08T06:51:44;3.78;;;0.60;;
71773;SDS011;59607;52.130;5.430;2023-10-08T06:54:12;1.13;;;0.50;;
71773;SDS011;59607;52.130;5.430;2023-10-08T06:56:45;2.50;;;0.45;;
71773;SDS011;59607;52.130;5.430;2023-10-08T06:59:16;1.73;;;0.75;;
71773;SDS011;59607;52.130;5.430;2023-10-08T07:02:02;1.47;;;0.63;;
71773;SDS011;59607;52.130;5.430;2023-10-08T07:04:29;1.67;;;0.63;;
71773;SDS011;59607;52.130;5.430;2023-10-08T07:06:59;3.17;;;0.57;;
71773;SDS011;59607;52.130;5.430;2023-10-08T07:09:27;3.38;;;0.50;;
71773;SDS011;59607;52.130;5.430;2023-10-08T07:11:54;2.65;;;0.63;;
71773;SDS011;59607;52.130;5.430;2023-10-08T07:14:25;1.87;;;0.70;;
71773;SDS011;59607;52.130;5.430;2023-10-08T07:16:55;1.10;;;0.75;;
71773;SDS011;59607;52.130;5.430;2023-10-08T07:19:26;1.20;;;0.63;;
71773;SDS011;59607;52.130;5.430;2023-10-08T07:22:01;1.30;;;0.68;;
71773;SDS011;59607;52.130;5.430;2023-10-08T07:25:01;1.52;;;0.82;;
71773;SDS011;59607;52.130;5.430;2023-10-08T07:27:35;1.87;;;1.23;;
71773;SDS011;59607;52.130;5.430;2023-10-08T07:30:07;3.65;;;1.00;;
71773;SDS011;59607;52.130;5.430;2023-10-08T07:32:37;1.83;;;1.00;;
71773;SDS011;59607;52.130;5.430;2023-10-08T07:35:05;1.50;;;1.08;;
71773;SDS011;59607;52.130;5.430;2023-10-08T07:37:50;2.33;;;0.90;;
71773;SDS011;59607;52.130;5.430;2023-10-08T07:40:21;1.83;;;0.80;;
71773;SDS011;59607;52.130;5.430;2023-10-08T07:42:58;1.45;;;1.08;;
71773;SDS011;59607;52.130;5.430;2023-10-08T07:45:39;3.65;;;1.15;;
71773;SDS011;59607;52.130;5.430;2023-10-08T07:48:06;2.67;;;1.30;;
71773;SDS011;59607;52.130;5.430;2023-10-08T07:50:43;1.70;;;1.10;;
71773;SDS011;59607;52.130;5.430;2023-10-08T07:53:12;1.83;;;1.40;;
71773;SDS011;59607;52.130;5.430;2023-10-08T07:55:45;2.20;;;1.20;;
71773;SDS011;59607;52.130;5.430;2023-10-08T07:58:17;3.25;;;1.42;;
71773;SDS011;59607;52.130;5.430;2023-10-08T08:00:49;3.42;;;1.42;;
71773;SDS011;59607;52.130;5.430;2023-10-08T08:03:21;1.77;;;1.40;;
71773;SDS011;59607;52.130;5.430;2023-10-08T08:05:53;1.83;;;1.40;;
71773;SDS011;59607;52.130;5.430;2023-10-08T08:08:20;1.50;;;0.95;;
71773;SDS011;59607;52.130;5.430;2023-10-08T08:10:54;2.17;;;1.38;;
71773;SDS011;59607;52.130;5.430;2023-10-08T08:13:24;1.60;;;1.20;;
71773;SDS011;59607;52.130;5.430;2023-10-08T08:16:01;1.40;;;1.30;;
71773;SDS011;59607;52.130;5.430;2023-10-08T08:18:43;1.50;;;0.93;;
71773;SDS011;59607;52.130;5.430;2023-10-08T08:21:19;2.15;;;1.17;;
71773;SDS011;59607;52.130;5.430;2023-10-08T08:23:46;1.83;;;1.08;;
71773;SDS011;59607;52.130;5.430;2023-10-08T08:26:37;1.40;;;1.20;;
71773;SDS011;59607;52.130;5.430;2023-10-08T08:29:22;3.08;;;1.02;;
71773;SDS011;59607;52.130;5.430;2023-10-08T08:31:54;1.70;;;1.23;;
71773;SDS011;59607;52.130;5.430;2023-10-08T08:34:26;2.17;;;1.13;;
71773;SDS011;59607;52.130;5.430;2023-10-08T08:36:55;1.67;;;1.00;;
71773;SDS011;59607;52.130;5.430;2023-10-08T08:39:38;1.65;;;0.88;;
71773;SDS011;59607;52.130;5.430;2023-10-08T08:42:11;2.85;;;0.93;;
71773;SDS011;59607;52.130;5.430;2023-10-08T08:44:38;2.50;;;1.17;;
71773;SDS011;59607;52.130;5.430;2023-10-08T08:47:17;4.45;;;1.58;;
71773;SDS011;59607;52.130;5.430;2023-10-08T08:49:53;2.17;;;0.90;;
71773;SDS011;59607;52.130;5.430;2023-10-08T08:52:22;2.10;;;0.73;;
71773;SDS011;59607;52.130;5.430;2023-10-08T08:55:12;1.83;;;1.08;;
71773;SDS011;59607;52.130;5.430;2023-10-08T08:57:48;1.50;;;0.97;;
71773;SDS011;59607;52.130;5.430;2023-10-08T09:00:26;2.55;;;1.10;;
71773;SDS011;59607;52.130;5.430;2023-10-08T09:03:01;2.15;;;0.73;;
71773;SDS011;59607;52.130;5.430;2023-10-08T09:05:31;4.15;;;0.80;;
71773;SDS011;59607;52.130;5.430;2023-10-08T09:08:05;5.97;;;1.15;;
71773;SDS011;59607;52.130;5.430;2023-10-08T09:10:44;1.33;;;0.83;;
71773;SDS011;59607;52.130;5.430;2023-10-08T09:13:25;3.05;;;1.02;;
71773;SDS011;59607;52.130;5.430;2023-10-08T09:15:51;1.98;;;1.30;;
71773;SDS011;59607;52.130;5.430;2023-10-08T09:18:28;1.40;;;1.00;;
71773;SDS011;59607;52.130;5.430;2023-10-08T09:23:51;2.00;;;1.10;;
71773;SDS011;59607;52.130;5.430;2023-10-08T09:26:24;3.42;;;1.40;;
71773;SDS011;59607;52.130;5.430;2023-10-08T09:28:53;3.10;;;1.42;;
71773;SDS011;59607;52.130;5.430;2023-10-08T09:31:22;3.08;;;1.52;;
71773;SDS011;59607;52.130;5.430;2023-10-08T09:34:05;2.88;;;1.17;;
71773;SDS011;59607;52.130;5.430;2023-10-08T09:36:37;1.70;;;1.20;;
71773;SDS011;59607;52.130;5.430;2023-10-08T09:39:08;2.58;;;1.25;;
71773;SDS011;59607;52.130;5.430;2023-10-08T09:41:44;1.65;;;1.10;;
71773;SDS011;59607;52.130;5.430;2023-10-08T09:44:24;1.90;;;1.10;;
71773;SDS011;59607;52.130;5.430;2023-10-08T09:46:52;1.85;;;1.40;;
71773;SDS011;59607;52.130;5.430;2023-10-08T09:49:38;2.03;;;1.70;;
71773;SDS011;59607;52.130;5.430;2023-10-08T09:52:11;2.70;;;1.40;;
71773;SDS011;59607;52.130;5.430;2023-10-08T09:55:04;1.90;;;1.73;;
71773;SDS011;59607;52.130;5.430;2023-10-08T09:57:37;3.13;;;1.40;;
71773;SDS011;59607;52.130;5.430;2023-10-08T10:00:19;2.10;;;1.38;;
71773;SDS011;59607;52.130;5.430;2023-10-08T10:02:57;1.97;;;1.10;;
71773;SDS011;59607;52.130;5.430;2023-10-08T10:05:34;3.75;;;1.67;;
71773;SDS011;59607;52.130;5.430;2023-10-08T10:08:07;2.85;;;1.33;;
71773;SDS011;59607;52.130;5.430;2023-10-08T10:10:38;4.07;;;1.35;;
71773;SDS011;59607;52.130;5.430;2023-10-08T10:13:05;2.13;;;1.55;;
71773;SDS011;59607;52.130;5.430;2023-10-08T10:15:42;2.10;;;1.60;;
71773;SDS011;59607;52.130;5.430;2023-10-08T10:18:16;2.08;;;1.95;;
71773;SDS011;59607;52.130;5.430;2023-10-08T10:23:42;1.88;;;1.52;;
71773;SDS011;59607;52.130;5.430;2023-10-08T10:26:27;2.30;;;2.03;;
71773;SDS011;59607;52.130;5.430;2023-10-08T10:31:50;4.38;;;1.67;;
71773;SDS011;59607;52.130;5.430;2023-10-08T10:34:24;3.13;;;2.72;;
71773;SDS011;59607;52.130;5.430;2023-10-08T10:36:59;2.45;;;1.85;;
71773;SDS011;59607;52.130;5.430;2023-10-08T10:39:35;2.42;;;2.08;;
71773;SDS011;59607;52.130;5.430;2023-10-08T10:42:08;2.97;;;1.73;;
71773;SDS011;59607;52.130;5.430;2023-10-08T10:44:54;4.22;;;1.92;;
71773;SDS011;59607;52.130;5.430;2023-10-08T10:47:22;2.85;;;1.92;;
71773;SDS011;59607;52.130;5.430;2023-10-08T10:49:57;3.15;;;2.00;;
71773;SDS011;59607;52.130;5.430;2023-10-08T10:52:28;2.60;;;2.38;;
71773;SDS011;59607;52.130;5.430;2023-10-08T10:55:30;2.53;;;2.30;;
71773;SDS011;59607;52.130;5.430;2023-10-08T10:58:16;4.13;;;2.67;;
71773;SDS011;59607;52.130;5.430;2023-10-08T11:00:50;3.78;;;2.92;;
71773;SDS011;59607;52.130;5.430;2023-10-08T11:03:26;3.42;;;2.90;;
71773;SDS011;59607;52.130;5.430;2023-10-08T11:05:56;2.75;;;2.55;;
71773;SDS011;59607;52.130;5.430;2023-10-08T11:08:31;3.23;;;2.63;;
71773;SDS011;59607;52.130;5.430;2023-10-08T11:11:02;3.80;;;2.45;;
71773;SDS011;59607;52.130;5.430;2023-10-08T11:13:37;4.72;;;2.53;;
71773;SDS011;59607;52.130;5.430;2023-10-08T11:16:06;3.20;;;2.90;;
71773;SDS011;59607;52.130;5.430;2023-10-08T11:18:44;3.13;;;2.83;;
71773;SDS011;59607;52.130;5.430;2023-10-08T11:21:19;2.40;;;2.20;;
71773;SDS011;59607;52.130;5.430;2023-10-08T11:23:53;2.70;;;2.30;;
71773;SDS011;59607;52.130;5.430;2023-10-08T11:26:22;3.25;;;2.08;;
71773;SDS011;59607;52.130;5.430;2023-10-08T11:29:20;2.45;;;2.17;;
71773;SDS011;59607;52.130;5.430;2023-10-08T11:32:05;3.00;;;2.40;;
71773;SDS011;59607;52.130;5.430;2023-10-08T11:34:39;2.93;;;2.47;;
71773;SDS011;59607;52.130;5.430;2023-10-08T11:37:05;2.80;;;2.60;;
71773;SDS011;59607;52.130;5.430;2023-10-08T11:39:58;2.65;;;2.42;;
71773;SDS011;59607;52.130;5.430;2023-10-08T11:42:27;3.33;;;2.47;;
71773;SDS011;59607;52.130;5.430;2023-10-08T11:45:05;3.47;;;2.00;;
71773;SDS011;59607;52.130;5.430;2023-10-08T11:47:55;5.83;;;2.30;;
71773;SDS011;59607;52.130;5.430;2023-10-08T11:50:38;3.28;;;2.33;;
71773;SDS011;59607;52.130;5.430;2023-10-08T11:53:10;3.33;;;2.30;;
71773;SDS011;59607;52.130;5.430;2023-10-08T11:55:37;2.15;;;1.95;;
71773;SDS011;59607;52.130;5.430;2023-10-08T11:58:11;2.63;;;1.67;;
71773;SDS011;59607;52.130;5.430;2023-10-08T12:00:38;2.90;;;1.60;;
71773;SDS011;59607;52.130;5.430;2023-10-08T12:03:14;2.00;;;1.55;;
71773;SDS011;59607;52.130;5.430;2023-10-08T12:05:56;4.40;;;1.65;;
71773;SDS011;59607;52.130;5.430;2023-10-08T12:08:26;1.83;;;1.30;;
71773;SDS011;59607;52.130;5.430;2023-10-08T12:11:14;2.70;;;1.50;;
71773;SDS011;59607;52.130;5.430;2023-10-08T12:13:43;2.33;;;1.33;;
71773;SDS011;59607;52.130;5.430;2023-10-08T12:16:20;4.05;;;1.80;;
71773;SDS011;59607;52.130;5.430;2023-10-08T12:18:49;3.15;;;1.70;;
71773;SDS011;59607;52.130;5.430;2023-10-08T12:21:33;1.92;;;1.23;;
71773;SDS011;59607;52.130;5.430;2023-10-08T12:24:05;2.20;;;1.50;;
71773;SDS011;59607;52.130;5.430;2023-10-08T12:26:32;2.43;;;1.37;;
71773;SDS011;59607;52.130;5.430;2023-10-08T12:28:59;2.53;;;1.27;;
71773;SDS011;59607;52.130;5.430;2023-10-08T12:31:28;3.08;;;1.35;;
71773;SDS011;59607;52.130;5.430;2023-10-08T12:33:55;1.85;;;1.38;;
71773;SDS011;59607;52.130;5.430;2023-10-08T12:36:28;3.88;;;1.40;;
71773;SDS011;59607;52.130;5.430;2023-10-08T12:39:02;2.50;;;1.10;;
71773;SDS011;59607;52.130;5.430;2023-10-08T12:42:03;3.15;;;1.30;;
71773;SDS011;59607;52.130;5.430;2023-10-08T12:44:35;2.80;;;1.10;;
71773;SDS011;59607;52.130;5.430;2023-10-08T12:47:02;4.80;;;1.10;;
71773;SDS011;59607;52.130;5.430;2023-10-08T12:49:46;3.63;;;1.50;;
71773;SDS011;59607;52.130;5.430;2023-10-08T12:55:15;3.65;;;1.10;;
71773;SDS011;59607;52.130;5.430;2023-10-08T12:57:48;1.67;;;0.80;;
71773;SDS011;59607;52.130;5.430;2023-10-08T13:00:35;2.83;;;1.20;;
71773;SDS011;59607;52.130;5.430;2023-10-08T13:03:08;5.05;;;0.95;;
71773;SDS011;59607;52.130;5.430;2023-10-08T13:05:44;1.83;;;0.73;;
71773;SDS011;59607;52.130;5.430;2023-10-08T13:08:11;1.83;;;0.60;;
71773;SDS011;59607;52.130;5.430;2023-10-08T13:10:39;1.23;;;0.52;;
71773;SDS011;59607;52.130;5.430;2023-10-08T13:13:15;1.98;;;0.90;;
71773;SDS011;59607;52.130;5.430;2023-10-08T13:15:41;3.13;;;0.63;;
71773;SDS011;59607;52.130;5.430;2023-10-08T13:18:10;1.03;;;0.40;;
71773;SDS011;59607;52.130;5.430;2023-10-08T13:20:37;3.85;;;0.60;;
71773;SDS011;59607;52.130;5.430;2023-10-08T13:23:08;3.45;;;0.50;;
71773;SDS011;59607;52.130;5.430;2023-10-08T13:25:49;2.20;;;1.02;;
71773;SDS011;59607;52.130;5.430;2023-10-08T13:28:35;1.60;;;0.60;;
71773;SDS011;59607;52.130;5.430;2023-10-08T13:31:02;1.57;;;0.60;;
71773;SDS011;59607;52.130;5.430;2023-10-08T13:33:40;2.95;;;1.10;;
71773;SDS011;59607;52.130;5.430;2023-10-08T13:36:36;1.55;;;1.00;;
71773;SDS011;59607;52.130;5.430;2023-10-08T13:39:08;2.85;;;0.77;;
71773;SDS011;59607;52.130;5.430;2023-10-08T13:41:37;2.42;;;1.00;;
71773;SDS011;59607;52.130;5.430;2023-10-08T13:44:11;2.47;;;0.83;;
71773;SDS011;59607;52.130;5.430;2023-10-08T13:46:42;5.78;;;1.20;;
71773;SDS011;59607;52.130;5.430;2023-10-08T13:49:18;4.57;;;0.95;;
71773;SDS011;59607;52.130;5.430;2023-10-08T13:51:47;5.70;;;1.33;;
71773;SDS011;59607;52.130;5.430;2023-10-08T13:54:25;5.82;;;0.90;;
71773;SDS011;59607;52.130;5.430;2023-10-08T13:56:56;3.70;;;1.37;;
71773;SDS011;59607;52.130;5.430;2023-10-08T13:59:28;2.65;;;1.48;;
71773;SDS011;59607;52.130;5.430;2023-10-08T14:02:04;3.05;;;1.20;;
71773;SDS011;59607;52.130;5.430;2023-10-08T14:04:44;2.88;;;1.20;;
71773;SDS011;59607;52.130;5.430;2023-10-08T14:07:12;2.88;;;1.02;;
71773;SDS011;59607;52.130;5.430;2023-10-08T14:09:46;2.40;;;1.00;;
71773;SDS011;59607;52.130;5.430;2023-10-08T14:12:18;2.25;;;0.80;;
71773;SDS011;59607;52.130;5.430;2023-10-08T14:14:50;3.78;;;1.38;;
71773;SDS011;59607;52.130;5.430;2023-10-08T14:17:16;3.40;;;1.20;;
71773;SDS011;59607;52.130;5.430;2023-10-08T14:20:09;3.08;;;1.15;;
71773;SDS011;59607;52.130;5.430;2023-10-08T14:22:39;1.70;;;1.07;;
71773;SDS011;59607;52.130;5.430;2023-10-08T14:25:15;1.40;;;1.00;;
71773;SDS011;59607;52.130;5.430;2023-10-08T14:27:47;2.40;;;1.05;;
71773;SDS011;59607;52.130;5.430;2023-10-08T14:30:18;2.97;;;1.30;;
71773;SDS011;59607;52.130;5.430;2023-10-08T14:32:56;3.42;;;1.02;;
71773;SDS011;59607;52.130;5.430;2023-10-08T14:35:25;1.70;;;1.20;;
71773;SDS011;59607;52.130;5.430;2023-10-08T14:38:11;2.00;;;1.30;;
71773;SDS011;59607;52.130;5.430;2023-10-08T14:40:59;4.55;;;1.20;;
71773;SDS011;59607;52.130;5.430;2023-10-08T14:43:47;2.05;;;1.52;;
71773;SDS011;59607;52.130;5.430;2023-10-08T14:46:22;3.47;;;1.42;;
71773;SDS011;59607;52.130;5.430;2023-10-08T14:48:50;3.03;;;1.13;;
71773;SDS011;59607;52.130;5.430;2023-10-08T14:51:32;1.60;;;1.20;;
71773;SDS011;59607;52.130;5.430;2023-10-08T14:54:01;2.20;;;1.20;;
71773;SDS011;59607;52.130;5.430;2023-10-08T14:56:41;4.90;;;1.42;;
71773;SDS011;59607;52.130;5.430;2023-10-08T14:59:07;2.42;;;1.73;;
71773;SDS011;59607;52.130;5.430;2023-10-08T15:01:34;6.33;;;1.30;;
71773;SDS011;59607;52.130;5.430;2023-10-08T15:04:07;2.78;;;1.92;;
71773;SDS011;59607;52.130;5.430;2023-10-08T15:06:37;4.97;;;1.98;;
71773;SDS011;59607;52.130;5.430;2023-10-08T15:09:08;22.48;;;8.27;;
71773;SDS011;59607;52.130;5.430;2023-10-08T15:11:39;5.65;;;3.53;;
71773;SDS011;59607;52.130;5.430;2023-10-08T15:14:07;5.13;;;2.13;;
71773;SDS011;59607;52.130;5.430;2023-10-08T15:16:43;4.82;;;2.10;;
71773;SDS011;59607;52.130;5.430;2023-10-08T15:19:12;7.03;;;1.92;;
71773;SDS011;59607;52.130;5.430;2023-10-08T15:21:44;3.15;;;1.55;;
71773;SDS011;59607;52.130;5.430;2023-10-08T15:24:22;3.75;;;1.65;;
71773;SDS011;59607;52.130;5.430;2023-10-08T15:26:49;2.37;;;2.10;;
71773;SDS011;59607;52.130;5.430;2023-10-08T15:29:25;3.08;;;1.70;;
71773;SDS011;59607;52.130;5.430;2023-10-08T15:31:52;2.92;;;1.88;;
71773;SDS011;59607;52.130;5.430;2023-10-08T15:34:28;2.80;;;1.85;;
71773;SDS011;59607;52.130;5.430;2023-10-08T15:37:04;3.50;;;1.50;;
71773;SDS011;59607;52.130;5.430;2023-10-08T15:39:34;3.20;;;1.57;;
71773;SDS011;59607;52.130;5.430;2023-10-08T15:42:00;2.05;;;1.30;;
71773;SDS011;59607;52.130;5.430;2023-10-08T15:44:41;4.78;;;2.15;;
71773;SDS011;59607;52.130;5.430;2023-10-08T15:47:21;2.53;;;2.00;;
71773;SDS011;59607;52.130;5.430;2023-10-08T15:49:54;2.42;;;1.42;;